Time;durP1;ratioP1;P1;durP2;ratioP2;P2;SDS_P1;SDS_P2;PMS_P1;PMS_P2;Temp;Humidity;BMP_temperature;BMP_pressure;BME280_temperature;BME280_humidity;BME280_pressure;Samples;Min_cycle;Max_cycle;Signal;HPM_P1;HPM_P2
2022/12/24 00:00:03;;;;;;;32.87;15.63;;;;;;;-141.28;100.00;49772.81;5063489;28;20977;-74
2022/12/24 00:02:30;;;;;;;34.50;17.73;;;;;;;-141.28;100.00;49751.25;5076657;28;20450;-74
2022/12/24 00:04:58;;;;;;;27.47;13.73;;;;;;;-141.28;100.00;49774.78;5075322;28;20570;-75
2022/12/24 00:07:25;;;;;;;24.87;12.40;;;;;;;-141.28;100.00;49761.06;5076341;28;20503;-77
2022/12/24 00:09:53;;;;;;;24.33;12.27;;;;;;;-141.28;100.00;49757.13;5075590;28;20458;-77
2022/12/24 00:12:19;;;;;;;24.63;12.67;;;;;;;-141.28;100.00;49763.00;5074543;28;20451;-79
2022/12/24 00:14:46;;;;;;;25.63;13.93;;;;;;;-141.28;100.00;49741.44;5074276;28;20455;-76
2022/12/24 00:17:15;;;;;;;26.47;13.23;;;;;;;-141.28;100.00;49780.69;5074024;28;20454;-75
2022/12/24 00:19:42;;;;;;;24.23;12.63;;;;;;;-141.28;100.00;49780.69;5074208;28;20450;-76
2022/12/24 00:22:11;;;;;;;28.13;14.93;;;;;;;-141.28;100.00;49784.59;5073760;28;20482;-73
2022/12/24 00:24:38;;;;;;;27.13;14.27;;;;;;;-141.28;100.00;49819.94;5073963;28;20518;-74
2022/12/24 00:27:05;;;;;;;25.37;12.23;;;;;;;-141.28;100.00;49825.81;5073472;28;20508;-74
2022/12/24 00:29:32;;;;;;;24.40;13.47;;;;;;;-141.28;100.00;49812.06;5074116;28;20820;-74
2022/12/24 00:31:59;;;;;;;37.77;17.27;;;;;;;-141.28;100.00;49827.78;5073669;28;20467;-76
2022/12/24 00:34:26;;;;;;;32.33;16.63;;;;;;;-141.28;100.00;49837.59;5073842;28;20442;-74
2022/12/24 00:36:53;;;;;;;30.17;15.80;;;;;;;-141.28;100.00;49831.69;5073347;28;20509;-76
2022/12/24 00:39:21;;;;;;;35.07;17.83;;;;;;;-141.28;100.00;49857.22;5073724;28;20528;-76
2022/12/24 00:41:48;;;;;;;38.63;18.90;;;;;;;-141.28;100.00;49861.13;5073468;28;20446;-77
2022/12/24 00:44:15;;;;;;;37.23;19.70;;;;;;;-141.28;100.00;49833.66;5073721;28;20935;-76
2022/12/24 00:46:42;;;;;;;42.67;21.13;;;;;;;-141.28;100.00;49865.06;5073983;28;20465;-75
2022/12/24 00:49:11;;;;;;;39.47;20.83;;;;;;;-141.28;100.00;49898.44;5074807;28;21026;-76
2022/12/24 00:51:38;;;;;;;46.23;22.47;;;;;;;-141.28;100.00;49863.09;5072921;28;20964;-77
2022/12/24 00:54:06;;;;;;;40.13;21.57;;;;;;;-141.28;100.00;49902.34;5072896;28;20523;-75
2022/12/24 00:56:35;;;;;;;42.13;23.20;;;;;;;-141.28;100.00;49870.94;5073035;28;21083;-75
2022/12/24 00:59:02;;;;;;;46.53;23.97;;;;;;;-141.28;100.00;49886.66;5074824;28;20504;-76
2022/12/24 01:01:29;;;;;;;46.87;23.07;;;;;;;-141.28;100.00;49906.28;5075045;28;20450;-72
2022/12/24 01:05:09;;;;;;;56.07;26.97;;;;;;;-141.28;100.00;49914.13;5076286;28;20478;-77
2022/12/24 01:06:43;;;;;;;49.80;25.23;;;;;;;-141.28;100.00;49939.63;5073100;28;20518;-76
2022/12/24 01:09:10;;;;;;;50.63;25.47;;;;;;;-141.28;100.00;49914.13;5073062;28;20470;-75
2022/12/24 01:11:39;;;;;;;53.70;25.60;;;;;;;-141.28;100.00;49898.44;5073652;28;20521;-75
2022/12/24 01:14:06;;;;;;;49.67;24.63;;;;;;;-141.28;100.00;49921.97;5073287;28;20512;-73
2022/12/24 01:16:32;;;;;;;52.10;25.47;;;;;;;-141.28;100.00;49943.56;5072978;28;20961;-72
2022/12/24 01:19:00;;;;;;;61.97;25.83;;;;;;;-141.28;100.00;49918.06;5072518;28;20462;-74
2022/12/24 01:21:27;;;;;;;50.37;24.93;;;;;;;-141.28;100.00;49914.13;5073092;28;20446;-75
2022/12/24 01:23:55;;;;;;;48.33;24.60;;;;;;;-141.28;100.00;49976.94;5072512;28;20920;-74
2022/12/24 01:26:21;;;;;;;46.97;25.13;;;;;;;-141.28;100.00;49969.06;5072890;28;20463;-74
2022/12/24 01:28:50;;;;;;;50.13;24.63;;;;;;;-141.28;100.00;49976.94;5072919;28;20525;-76
2022/12/24 01:31:18;;;;;;;48.80;25.03;;;;;;;-141.28;100.00;49978.88;5072541;28;20470;-75
2022/12/24 01:33:46;;;;;;;49.47;24.73;;;;;;;-141.28;100.00;49980.84;5072189;28;20451;-75
2022/12/24 01:36:14;;;;;;;52.17;25.80;;;;;;;-141.28;100.00;49980.84;5072420;28;20514;-75
2022/12/24 01:38:41;;;;;;;54.53;26.87;;;;;;;-141.28;100.00;49976.94;5072291;28;21010;-79
2022/12/24 01:44:18;;;;;;;56.00;25.80;;;;;;;-141.28;100.00;49957.31;5072357;28;20874;-75
2022/12/24 01:46:46;;;;;;;56.77;26.63;;;;;;;-141.28;100.00;49969.06;5061041;28;20508;-79
2022/12/24 01:49:15;;;;;;;49.97;25.90;;;;;;;-141.28;100.00;49965.16;5072172;28;21046;-75
2022/12/24 01:51:45;;;;;;;55.77;26.53;;;;;;;-141.28;100.00;49963.19;5072031;28;20455;-75
2022/12/24 01:54:16;;;;;;;60.87;25.60;;;;;;;-141.28;100.00;49988.69;5072364;28;20454;-74
2022/12/24 01:56:46;;;;;;;56.93;27.37;;;;;;;-141.28;100.00;49969.06;5071955;28;20953;-74
2022/12/24 01:59:18;;;;;;;54.90;25.83;;;;;;;-141.28;100.00;50008.34;5071883;28;20816;-76
2022/12/24 02:01:47;;;;;;;51.53;25.07;;;;;;;-141.28;100.00;50000.47;5072099;28;20442;-77
2022/12/24 02:04:24;;;;;;;52.03;25.57;;;;;;;-141.28;100.00;49994.59;5072172;28;20577;-73
2022/12/24 02:06:51;;;;;;;54.73;25.20;;;;;;;-141.28;100.00;50020.09;5071790;28;20454;-75
2022/12/24 02:09:19;;;;;;;54.17;24.47;;;;;;;-141.28;100.00;50014.22;5071805;28;20470;-78
2022/12/24 02:11:46;;;;;;;62.23;27.97;;;;;;;-141.28;100.00;50037.78;5072044;28;20450;-77
2022/12/24 02:14:14;;;;;;;57.57;27.50;;;;;;;-141.28;100.00;49996.56;5071718;28;20489;-80
2022/12/24 02:16:51;;;;;;;65.43;30.00;;;;;;;-141.28;100.00;50035.81;5072036;28;20975;-74
2022/12/24 02:19:43;;;;;;;63.60;28.73;;;;;;;-141.28;100.00;50035.81;5071745;28;20450;-76
2022/12/24 02:22:16;;;;;;;66.20;31.07;;;;;;;-141.28;100.00;50020.09;5027081;28;20450;-75
2022/12/24 02:25:03;;;;;;;70.20;31.67;;;;;;;-141.28;100.00;50024.03;5072148;28;20486;-75
2022/12/24 02:27:42;;;;;;;60.37;29.30;;;;;;;-141.28;100.00;50018.16;5071435;28;20965;-76
2022/12/24 02:30:18;;;;;;;61.27;27.70;;;;;;;-141.28;100.00;49996.56;5071612;28;20447;-74
2022/12/24 02:33:12;;;;;;;61.47;28.57;;;;;;;-141.28;100.00;50024.03;5058888;28;20890;-75
2022/12/24 02:35:49;;;;;;;64.20;27.80;;;;;;;-141.28;100.00;50020.09;5071357;28;20450;-76
2022/12/24 02:38:22;;;;;;;51.30;25.57;;;;;;;-141.28;100.00;50014.22;5071563;28;20446;-76
2022/12/24 02:40:52;;;;;;;52.60;26.40;;;;;;;-141.28;100.00;50055.44;5059137;28;20520;-75
2022/12/24 02:43:23;;;;;;;55.37;27.50;;;;;;;-141.28;100.00;50078.97;5071457;28;20451;-77
2022/12/24 02:45:59;;;;;;;55.93;26.43;;;;;;;-141.28;100.00;50133.94;5071906;28;20493;-79
2022/12/24 02:48:28;;;;;;;57.47;28.00;;;;;;;-141.28;100.00;50126.09;5071042;28;20964;-79
2022/12/24 02:50:57;;;;;;;53.33;26.00;;;;;;;-141.28;100.00;50112.34;5071349;28;20505;-75
2022/12/24 02:53:24;;;;;;;55.90;27.13;;;;;;;-141.28;100.00;50143.75;5071257;28;20508;-75
2022/12/24 02:56:04;;;;;;;62.43;29.23;;;;;;;-141.28;100.00;50173.19;5071774;28;20447;-77
2022/12/24 02:58:42;;;;;;;59.13;27.53;;;;;;;-141.28;100.00;50141.78;5071212;28;20454;-76
2022/12/24 03:01:22;;;;;;;53.37;26.10;;;;;;;-141.28;100.00;50130.00;5071173;28;20453;-77
2022/12/24 03:04:01;;;;;;;56.53;25.80;;;;;;;-141.28;100.00;50114.31;5071671;28;20453;-76
2022/12/24 03:06:36;;;;;;;53.97;25.33;;;;;;;-141.28;100.00;50126.09;5071396;28;20447;-75
2022/12/24 03:09:13;;;;;;;54.60;26.40;;;;;;;-141.28;100.00;50080.94;5071388;28;20446;-74
2022/12/24 03:11:47;;;;;;;57.50;25.93;;;;;;;-141.28;100.00;50130.00;5071312;28;20446;-74
2022/12/24 03:14:16;;;;;;;61.57;28.53;;;;;;;-141.28;100.00;50137.88;5071366;28;21066;-76
2022/12/24 03:16:45;;;;;;;64.77;30.40;;;;;;;-141.28;100.00;50126.09;5074228;28;20462;-74
2022/12/24 03:19:12;;;;;;;63.87;29.40;;;;;;;-141.28;100.00;50171.22;5075392;28;20457;-75
2022/12/24 03:21:41;;;;;;;65.47;29.67;;;;;;;-141.28;100.00;50147.69;5075871;28;20450;-76
2022/12/24 03:24:09;;;;;;;63.47;28.43;;;;;;;-141.28;100.00;50161.41;5075165;28;20485;-78
2022/12/24 03:26:37;;;;;;;57.87;26.37;;;;;;;-141.28;100.00;50157.50;5075274;28;20513;-76
2022/12/24 03:29:05;;;;;;;70.13;31.37;;;;;;;-141.28;100.00;50196.75;5079908;28;20474;-74
2022/12/24 03:31:42;;;;;;;63.53;29.50;;;;;;;-141.28;100.00;50173.19;5077340;28;20546;-74
2022/12/24 03:34:10;;;;;;;65.43;30.90;;;;;;;-141.28;100.00;50259.56;5075282;28;20450;-74
2022/12/24 03:36:37;;;;;;;70.60;31.40;;;;;;;-141.28;100.00;50322.34;5077964;28;20476;-74
2022/12/24 03:39:05;;;;;;;66.97;30.43;;;;;;;-141.28;100.00;50373.38;5079486;28;20445;-76
2022/12/24 03:41:33;;;;;;;58.73;29.30;;;;;;;-141.28;100.00;50400.88;5076361;28;20454;-76
2022/12/24 03:44:00;;;;;;;69.40;33.73;;;;;;;-141.28;100.00;50451.91;5076481;28;20441;-77
2022/12/24 03:46:26;;;;;;;69.77;33.80;;;;;;;-141.28;100.00;50447.97;5077739;28;20463;-77
2022/12/24 03:48:53;;;;;;;84.30;38.27;;;;;;;-141.28;100.00;50440.13;5081302;28;20508;-74
2022/12/24 03:51:25;;;;;;;80.60;37.57;;;;;;;-141.28;100.00;50485.28;5081326;28;20446;-77
2022/12/24 03:53:52;;;;;;;83.83;38.07;;;;;;;-141.28;100.00;50479.38;5063063;28;20441;-74
2022/12/24 03:56:20;;;;;;;81.90;37.03;;;;;;;-141.28;100.00;50514.72;5074641;28;20442;-75
2022/12/24 03:58:47;;;;;;;82.93;37.87;;;;;;;-141.28;100.00;50487.25;5074678;28;20549;-74
2022/12/24 04:01:15;;;;;;;87.70;35.10;;;;;;;-141.28;100.00;50502.94;5074261;28;20876;-74
2022/12/24 04:03:42;;;;;;;75.30;35.43;;;;;;;-141.28;100.00;50506.88;5074456;28;20945;-78
2022/12/24 04:06:11;;;;;;;74.20;33.00;;;;;;;-141.28;100.00;50491.16;5074690;28;20489;-76
2022/12/24 04:08:40;;;;;;;76.40;32.27;;;;;;;-141.28;100.00;50491.16;5074680;28;20886;-76
2022/12/24 04:11:09;;;;;;;73.33;33.43;;;;;;;-141.28;100.00;50550.06;5073968;28;20948;-78
2022/12/24 04:13:36;;;;;;;68.20;31.87;;;;;;;-141.28;100.00;50508.81;5074228;28;20446;-79
2022/12/24 04:16:05;;;;;;;71.63;32.03;;;;;;;-141.28;100.00;50479.38;5073817;28;20470;-77
2022/12/24 04:18:32;;;;;;;66.67;32.17;;;;;;;-141.28;100.00;50475.47;5074003;28;21002;-77
2022/12/24 04:20:59;;;;;;;68.37;30.07;;;;;;;-141.28;100.00;50483.31;5074117;28;20451;-77
2022/12/24 04:23:26;;;;;;;73.13;32.67;;;;;;;-141.28;100.00;50481.34;5074265;28;20442;-79
2022/12/24 04:25:55;;;;;;;72.27;31.60;;;;;;;-141.28;100.00;50461.72;5073928;28;20487;-79
2022/12/24 04:28:21;;;;;;;72.87;32.20;;;;;;;-141.28;100.00;50459.75;5073380;28;20473;-81
2022/12/24 04:30:48;;;;;;;71.10;31.50;;;;;;;-141.28;100.00;50481.34;5073580;28;20906;-77
2022/12/24 04:33:15;;;;;;;76.83;32.77;;;;;;;-141.28;100.00;50446.03;5073827;28;20467;-75
2022/12/24 04:35:42;;;;;;;83.37;37.93;;;;;;;-141.28;100.00;50424.44;5073880;28;20439;-73
2022/12/24 04:38:10;;;;;;;77.77;37.57;;;;;;;-141.28;100.00;50432.28;5057677;28;20529;-74
2022/12/24 04:40:36;;;;;;;69.97;34.80;;;;;;;-141.28;100.00;50414.63;5073580;28;20446;-76
2022/12/24 04:43:07;;;;;;;81.63;34.57;;;;;;;-141.28;100.00;50400.88;5073731;28;20454;-74
2022/12/24 04:45:34;;;;;;;81.87;35.97;;;;;;;-141.28;100.00;50357.69;5073412;28;20482;-73
2022/12/24 04:48:01;;;;;;;76.73;35.57;;;;;;;-141.28;100.00;50308.63;5073829;28;20527;-74
2022/12/24 04:50:27;;;;;;;83.73;39.13;;;;;;;-141.28;100.00;50357.69;5073295;28;20535;-75
2022/12/24 04:52:54;;;;;;;79.23;36.73;;;;;;;-141.28;100.00;50343.94;5073283;28;20458;-75
2022/12/24 04:55:21;;;;;;;95.93;40.07;;;;;;;-141.28;100.00;50343.94;5073187;28;20454;-76
2022/12/24 04:57:48;;;;;;;89.03;40.70;;;;;;;-141.28;100.00;50334.13;5073500;28;20469;-75
2022/12/24 05:00:18;;;;;;;86.07;37.40;;;;;;;-141.28;100.00;50334.13;5073448;28;20446;-77
2022/12/24 05:02:44;;;;;;;83.03;37.03;;;;;;;-141.28;100.00;50334.13;5072507;28;20457;-73
2022/12/24 05:05:11;;;;;;;83.77;36.93;;;;;;;-141.28;100.00;50330.22;5061080;28;20486;-76
2022/12/24 05:07:38;;;;;;;82.07;37.63;;;;;;;-141.28;100.00;50275.25;5074163;28;20524;-77
2022/12/24 05:10:07;;;;;;;83.73;37.87;;;;;;;-141.28;100.00;50330.22;5073988;28;20533;-74
2022/12/24 05:12:34;;;;;;;83.33;36.03;;;;;;;-141.28;100.00;50318.44;5073710;28;20461;-75
2022/12/24 05:15:03;;;;;;;87.97;41.47;;;;;;;-141.28;100.00;50322.34;5074742;28;20483;-73
2022/12/24 05:17:31;;;;;;;82.00;38.63;;;;;;;-141.28;100.00;50334.13;5073557;28;20450;-75
2022/12/24 05:19:58;;;;;;;93.70;41.13;;;;;;;-141.28;100.00;50255.63;5074093;28;20451;-73
2022/12/24 05:27:54;;;;;;;89.63;40.30;;;;;;;-141.28;100.00;50285.06;5072960;28;20871;-75
2022/12/24 05:30:21;;;;;;;86.30;39.37;;;;;;;-141.28;100.00;50251.69;5072364;28;20447;-75
2022/12/24 05:32:49;;;;;;;89.60;41.37;;;;;;;-141.28;100.00;50265.44;5072939;28;20475;-75
2022/12/24 05:35:16;;;;;;;78.07;35.20;;;;;;;-141.28;100.00;50302.72;5072271;28;20446;-78
2022/12/24 05:37:43;;;;;;;86.57;40.23;;;;;;;-141.28;100.00;50300.78;5072876;28;20442;-77
2022/12/24 05:40:11;;;;;;;78.27;36.97;;;;;;;-141.28;100.00;50312.53;5071595;28;20443;-74
2022/12/24 05:42:38;;;;;;;90.20;43.03;;;;;;;-141.28;100.00;50365.53;5072173;28;20878;-74
2022/12/24 05:45:07;;;;;;;93.27;41.50;;;;;;;-141.28;100.00;50349.84;5072525;28;20489;-74
2022/12/24 05:47:34;;;;;;;80.13;38.80;;;;;;;-141.28;100.00;50367.50;5069885;28;20535;-74
2022/12/24 05:50:02;;;;;;;81.60;37.17;;;;;;;-141.28;100.00;50393.03;5067424;28;20470;-74
2022/12/24 05:52:30;;;;;;;78.90;35.40;;;;;;;-141.28;100.00;50447.97;5072516;28;20496;-74
2022/12/24 05:54:57;;;;;;;74.67;34.30;;;;;;;-141.28;100.00;50408.72;5075000;28;20458;-74
2022/12/24 05:57:23;;;;;;;76.27;34.00;;;;;;;-141.28;100.00;50440.13;5072192;28;20486;-74
2022/12/24 05:59:51;;;;;;;73.43;32.83;;;;;;;-141.28;100.00;50422.47;5072003;28;20443;-74
2022/12/24 06:02:18;;;;;;;77.17;33.10;;;;;;;-141.28;100.00;50440.13;5072203;28;20454;-75
2022/12/24 06:04:44;;;;;;;84.10;35.20;;;;;;;-141.28;100.00;50471.53;5072994;28;20438;-74
2022/12/24 06:07:13;;;;;;;83.60;36.10;;;;;;;-141.28;100.00;50522.56;5076554;28;20513;-74
2022/12/24 06:09:41;;;;;;;80.40;34.47;;;;;;;-141.28;100.00;50514.72;5077053;28;20446;-75
2022/12/24 06:12:08;;;;;;;85.03;36.50;;;;;;;-141.28;100.00;50540.22;5078071;28;20447;-74
2022/12/24 06:14:35;;;;;;;86.30;35.83;;;;;;;-141.28;100.00;50585.38;5073805;28;21038;-77
2022/12/24 06:17:02;;;;;;;78.33;35.00;;;;;;;-141.28;100.00;50585.38;5072210;28;20512;-75
2022/12/24 06:19:29;;;;;;;89.27;35.97;;;;;;;-141.28;100.00;50620.72;5072673;28;20447;-73
2022/12/24 06:21:56;;;;;;;90.03;35.57;;;;;;;-141.28;100.00;50658.00;5072264;28;20983;-76
2022/12/24 06:24:24;;;;;;;97.00;37.83;;;;;;;-141.28;100.00;50681.56;5071682;28;20451;-74
2022/12/24 06:26:52;;;;;;;90.23;36.77;;;;;;;-141.28;100.00;50756.16;5072003;28;20490;-76
2022/12/24 06:29:19;;;;;;;81.77;34.83;;;;;;;-141.28;100.00;50883.75;5071620;28;20454;-78
2022/12/24 06:31:46;;;;;;;82.27;35.60;;;;;;;-141.28;100.00;51250.88;5072267;28;20485;-75
2022/12/24 06:34:13;;;;;;;83.43;33.57;;;;;;;-141.28;100.00;51570.91;5071462;28;20998;-74
2022/12/24 06:36:40;;;;;;;79.80;32.70;;;;;;;-141.28;100.00;51435.44;5072040;28;20519;-73
2022/12/24 06:39:07;;;;;;;85.13;34.50;;;;;;;-141.28;100.00;51084.00;5071475;28;20861;-77
2022/12/24 06:41:35;;;;;;;90.70;36.43;;;;;;;-141.28;100.00;50844.50;5071069;28;20884;-74
2022/12/24 06:44:02;;;;;;;84.00;37.03;;;;;;;-141.28;100.00;50691.38;5071397;28;20945;-74
2022/12/24 06:46:29;;;;;;;85.27;37.57;;;;;;;-141.28;100.00;50601.09;5070775;28;20509;-75
2022/12/24 06:48:56;;;;;;;91.10;36.60;;;;;;;-141.28;100.00;50577.53;5070772;28;20483;-76
2022/12/24 06:51:24;;;;;;;80.60;35.90;;;;;;;-141.28;100.00;50546.13;5072562;28;20446;-73
2022/12/24 06:53:52;;;;;;;74.20;33.57;;;;;;;-141.28;100.00;50534.34;5061946;28;20511;-71
2022/12/24 06:56:21;;;;;;;74.30;31.73;;;;;;;-141.28;100.00;50540.22;5084617;28;20450;-72
2022/12/24 06:58:50;;;;;;;61.60;26.17;;;;;;;-141.28;100.00;50573.59;5084751;28;20446;-72
2022/12/24 07:01:19;;;;;;;49.60;23.40;;;;;;;-141.28;100.00;50589.31;5083695;28;20507;-72
2022/12/24 07:03:47;;;;;;;49.07;23.90;;;;;;;-141.28;100.00;50589.31;5084245;28;20476;-75
2022/12/24 07:06:18;;;;;;;57.23;26.00;;;;;;;-141.28;100.00;51464.88;5083420;28;21283;-73
2022/12/24 07:08:45;;;;;;;48.87;22.83;;;;;;;-141.28;100.00;51665.16;5083874;28;20890;-74
2022/12/24 07:11:12;;;;;;;47.47;21.20;;;;;;;-141.28;100.00;51563.06;5083127;28;20447;-73
2022/12/24 07:13:39;;;;;;;45.33;21.57;;;;;;;-141.28;100.00;51488.44;5083299;28;20500;-74
2022/12/24 07:16:08;;;;;;;41.30;20.40;;;;;;;-141.28;100.00;51396.16;5083097;28;20494;-74
2022/12/24 07:18:35;;;;;;;41.53;20.27;;;;;;;-141.28;100.00;51292.13;5082882;28;20446;-73
2022/12/24 07:21:04;;;;;;;37.00;17.77;;;;;;;-141.28;100.00;51366.72;5083521;28;20447;-73
2022/12/24 07:23:31;;;;;;;36.13;18.63;;;;;;;-141.28;100.00;51500.22;5069919;28;20445;-73
2022/12/24 07:26:01;;;;;;;34.60;18.40;;;;;;;-141.28;100.00;51574.84;5080890;28;20532;-74
2022/12/24 07:28:28;;;;;;;37.50;18.60;;;;;;;-141.28;100.00;51488.44;5079104;28;20522;-75
2022/12/24 07:30:55;;;;;;;33.57;17.97;;;;;;;-141.28;100.00;51166.47;5071221;28;20953;-76
2022/12/24 07:33:24;;;;;;;31.97;17.83;;;;;;;-141.28;100.00;50993.69;5070535;28;20469;-74
2022/12/24 07:35:58;;;;;;;32.63;17.97;;;;;;;-141.28;100.00;50883.75;5070681;28;20450;-75
2022/12/24 07:38:26;;;;;;;31.47;17.70;;;;;;;-141.28;100.00;50711.00;5070554;28;20449;-73
2022/12/24 07:40:54;;;;;;;38.20;19.53;;;;;;;-141.28;100.00;50605.00;5071256;28;20508;-77
2022/12/24 07:43:21;;;;;;;34.90;18.50;;;;;;;-141.28;100.00;50538.28;5070409;28;20446;-74
2022/12/24 07:45:47;;;;;;;35.30;18.77;;;;;;;-141.28;100.00;50518.66;5070867;28;20494;-73
2022/12/24 07:48:14;;;;;;;35.43;19.23;;;;;;;-141.28;100.00;50520.59;5058183;28;20488;-77
2022/12/24 07:50:43;;;;;;;40.17;18.73;;;;;;;-141.28;100.00;50483.31;5070647;28;20478;-75
2022/12/24 07:53:10;;;;;;;33.77;18.20;;;;;;;-141.28;100.00;50510.78;5070686;28;20500;-76
2022/12/24 07:55:37;;;;;;;37.87;18.67;;;;;;;-141.28;100.00;50542.19;5070720;28;20508;-79
2022/12/24 07:58:04;;;;;;;32.13;17.60;;;;;;;-141.28;100.00;50487.25;5070590;28;20508;-74
2022/12/24 08:00:31;;;;;;;35.27;18.00;;;;;;;-141.28;100.00;50489.19;5065383;28;20987;-78
2022/12/24 08:02:58;;;;;;;32.47;17.33;;;;;;;-141.28;100.00;50416.56;5071918;28;20458;-75
2022/12/24 08:05:26;;;;;;;29.30;16.67;;;;;;;-141.28;100.00;50444.06;5073954;28;20453;-75
2022/12/24 08:07:55;;;;;;;30.00;17.17;;;;;;;-141.28;100.00;50440.13;5074414;28;20489;-77
2022/12/24 08:10:22;;;;;;;30.20;17.57;;;;;;;-141.28;100.00;50381.25;5074544;28;20446;-78
2022/12/24 08:12:51;;;;;;;31.70;17.03;;;;;;;-141.28;100.00;50447.97;5074011;28;20461;-76
2022/12/24 08:15:18;;;;;;;30.93;17.57;;;;;;;-141.28;100.00;50408.72;5074068;28;20442;-74
2022/12/24 08:17:46;;;;;;;31.67;16.97;;;;;;;-141.28;100.00;50404.81;5073626;28;21019;-75
2022/12/24 08:20:14;;;;;;;27.47;16.27;;;;;;;-141.28;100.00;50387.13;5073785;28;20767;-75
2022/12/24 08:22:42;;;;;;;28.43;16.97;;;;;;;-141.28;100.00;50357.69;5073549;28;20956;-77
2022/12/24 08:25:11;;;;;;;37.50;18.70;;;;;;;-141.28;100.00;50381.25;5074007;28;20455;-74
2022/12/24 08:27:38;;;;;;;42.63;20.50;;;;;;;-141.28;100.00;50369.47;5074080;28;20490;-73
2022/12/24 08:30:06;;;;;;;52.93;21.73;;;;;;;-141.28;100.00;50369.47;5074196;28;20453;-76
2022/12/24 08:32:35;;;;;;;45.43;23.43;;;;;;;-141.28;100.00;50385.16;5073257;28;20480;-77
2022/12/24 08:35:02;;;;;;;53.07;27.60;;;;;;;-141.28;100.00;50365.53;5073683;28;20443;-76
2022/12/24 08:37:29;;;;;;;52.30;26.70;;;;;;;-141.28;100.00;50338.06;5073625;28;20446;-75
2022/12/24 08:39:56;;;;;;;47.93;24.77;;;;;;;-141.28;100.00;50298.81;5073546;28;20450;-74
2022/12/24 08:42:24;;;;;;;37.70;19.70;;;;;;;-141.28;100.00;50310.59;5073484;28;20983;-76
2022/12/24 08:44:51;;;;;;;36.77;19.20;;;;;;;-141.28;100.00;50257.59;5073468;28;20463;-74
2022/12/24 08:47:19;;;;;;;34.80;17.73;;;;;;;-141.28;100.00;50306.66;5073329;28;20539;-74
2022/12/24 08:49:46;;;;;;;40.13;20.57;;;;;;;-141.28;100.00;50263.47;5073399;28;20467;-77
2022/12/24 08:52:13;;;;;;;37.87;20.50;;;;;;;-141.28;100.00;50247.78;5060358;28;20542;-74
2022/12/24 08:54:41;;;;;;;44.80;23.07;;;;;;;-141.28;100.00;50255.63;5073100;28;20982;-73
2022/12/24 08:57:08;;;;;;;50.07;23.73;;;;;;;-141.28;100.00;50243.84;5073248;28;20454;-76
2022/12/24 08:59:37;;;;;;;47.00;24.87;;;;;;;-141.28;100.00;50212.44;5072772;28;20450;-75
2022/12/24 09:02:03;;;;;;;53.13;26.67;;;;;;;-141.28;100.00;50204.59;5073250;28;20526;-78
2022/12/24 09:04:30;;;;;;;54.20;26.03;;;;;;;-141.28;100.00;50200.66;5073187;28;20480;-77
2022/12/24 09:06:57;;;;;;;59.00;26.53;;;;;;;-141.28;100.00;50141.78;5073078;28;20494;-74
2022/12/24 09:09:24;;;;;;;52.97;26.33;;;;;;;-141.28;100.00;50165.34;5073163;28;20454;-74
2022/12/24 09:11:52;;;;;;;55.50;26.57;;;;;;;-141.28;100.00;50153.56;5072854;28;20453;-75
2022/12/24 09:14:19;;;;;;;54.03;26.77;;;;;;;-141.28;100.00;50118.25;5072533;28;20831;-75
2022/12/24 09:16:48;;;;;;;58.60;28.67;;;;;;;-141.28;100.00;50139.81;5073252;28;20890;-74
2022/12/24 09:19:15;;;;;;;54.60;27.10;;;;;;;-141.28;100.00;50137.88;5073468;28;20447;-77
2022/12/24 09:21:42;;;;;;;57.30;28.13;;;;;;;-141.28;100.00;50137.88;5073287;28;20466;-74
2022/12/24 09:24:09;;;;;;;58.30;28.87;;;;;;;-141.28;100.00;50167.31;5072688;28;20957;-77
2022/12/24 09:26:36;;;;;;;61.97;29.43;;;;;;;-141.28;100.00;50153.56;5072804;28;20478;-79
2022/12/24 09:29:06;;;;;;;59.37;31.13;;;;;;;-141.28;100.00;50188.91;5073880;28;20504;-78
2022/12/24 09:31:34;;;;;;;56.30;28.33;;;;;;;-141.28;100.00;50181.03;5073643;28;20997;-74
2022/12/24 09:34:04;;;;;;;56.60;28.83;;;;;;;-141.28;100.00;50220.28;5073089;28;20447;-75
2022/12/24 09:36:31;;;;;;;64.23;30.13;;;;;;;-141.28;100.00;50206.56;5073802;28;20442;-75
2022/12/24 09:39:01;;;;;;;59.40;31.03;;;;;;;-141.28;100.00;50192.81;5073873;28;20469;-78
2022/12/24 09:41:41;;;;;;;55.90;29.53;;;;;;;-141.28;100.00;50173.19;5072531;28;20485;-79
2022/12/24 09:44:22;;;;;;;60.63;30.63;;;;;;;-141.28;100.00;50184.97;5073781;28;20545;-76
2022/12/24 09:46:52;;;;;;;58.83;28.80;;;;;;;-141.28;100.00;50247.78;5072466;28;20516;-75
2022/12/24 09:49:25;;;;;;;60.47;28.73;;;;;;;-141.28;100.00;50243.84;5072244;28;20524;-76
2022/12/24 09:51:55;;;;;;;57.40;28.37;;;;;;;-141.28;100.00;50232.06;5072436;28;20466;-74
2022/12/24 09:54:26;;;;;;;51.47;26.23;;;;;;;-141.28;100.00;50130.00;5072480;28;20988;-76
2022/12/24 09:56:55;;;;;;;49.63;23.87;;;;;;;-141.28;100.00;50161.41;5072461;28;20454;-74
2022/12/24 09:59:25;;;;;;;47.33;24.33;;;;;;;-141.28;100.00;50179.09;5072341;28;20450;-75
2022/12/24 10:01:54;;;;;;;51.27;25.60;;;;;;;-141.28;100.00;50184.97;5072235;28;20442;-75
2022/12/24 10:04:29;;;;;;;46.33;25.83;;;;;;;-141.28;100.00;50206.56;5071929;28;20451;-75
2022/12/24 10:07:07;;;;;;;50.77;26.63;;;;;;;-141.28;100.00;50224.22;5072059;28;21049;-75
2022/12/24 10:09:46;;;;;;;60.70;30.03;;;;;;;-141.28;100.00;50228.16;5071734;28;20980;-77
2022/12/24 10:12:22;;;;;;;61.03;29.43;;;;;;;-141.28;100.00;50192.81;5072210;28;20458;-74
2022/12/24 10:15:01;;;;;;;56.07;28.30;;;;;;;-141.28;100.00;50171.22;5075040;28;20439;-75
2022/12/24 10:17:43;;;;;;;56.30;27.93;;;;;;;-141.28;100.00;50165.34;5073766;28;20529;-75
2022/12/24 10:20:40;;;;;;;56.50;26.73;;;;;;;-141.28;100.00;50181.03;5071716;28;20454;-75
2022/12/24 10:23:15;;;;;;;47.00;25.80;;;;;;;-141.28;100.00;50216.38;5053378;28;21021;-74
2022/12/24 10:25:49;;;;;;;50.00;25.17;;;;;;;-141.28;100.00;50259.56;5071500;28;20439;-77
2022/12/24 10:28:19;;;;;;;49.03;26.23;;;;;;;-141.28;100.00;50302.72;5071979;28;20505;-77
2022/12/24 10:30:49;;;;;;;46.20;24.60;;;;;;;-141.28;100.00;50322.34;5071886;28;20509;-76
2022/12/24 10:33:20;;;;;;;49.53;25.17;;;;;;;-141.28;100.00;50326.28;5071581;28;20470;-77
2022/12/24 10:35:53;;;;;;;48.90;26.33;;;;;;;-141.28;100.00;50353.75;5072297;28;20455;-76
2022/12/24 10:38:20;;;;;;;48.23;26.90;;;;;;;-141.28;100.00;50402.84;5072096;28;20545;-78
2022/12/24 10:40:50;;;;;;;49.00;25.57;;;;;;;-141.28;100.00;50442.09;5083985;28;20461;-78
2022/12/24 10:43:21;;;;;;;46.47;26.00;;;;;;;-141.28;100.00;50420.50;5071446;28;20534;-78
2022/12/24 10:45:51;;;;;;;48.10;26.67;;;;;;;-141.28;100.00;50459.75;5059377;28;20458;-75
2022/12/24 10:48:26;;;;;;;50.57;25.70;;;;;;;-141.28;100.00;50502.94;5070967;28;20490;-75
2022/12/24 10:51:00;;;;;;;54.90;28.20;;;;;;;-141.28;100.00;50510.78;5071371;28;20481;-77
2022/12/24 10:53:36;;;;;;;54.03;27.93;;;;;;;-141.28;100.00;50438.16;5071273;28;20446;-75
2022/12/24 10:56:09;;;;;;;51.87;27.87;;;;;;;-141.28;100.00;50381.25;5072016;28;20474;-78
2022/12/24 10:58:36;;;;;;;54.67;28.93;;;;;;;-141.28;100.00;50312.53;5071481;28;20449;-75
2022/12/24 11:01:03;;;;;;;51.67;29.03;;;;;;;-141.28;100.00;50236.00;5073707;28;20458;-77
2022/12/24 11:03:32;;;;;;;61.27;28.37;;;;;;;-141.28;100.00;50161.41;5070949;28;20447;-80
2022/12/24 11:06:04;;;;;;;51.70;28.47;;;;;;;-141.28;100.00;50106.47;5071406;28;20446;-76
2022/12/24 11:08:33;;;;;;;53.37;29.13;;;;;;;-141.28;100.00;50039.72;5071006;28;20498;-79
2022/12/24 11:11:01;;;;;;;52.77;31.77;;;;;;;-141.28;100.00;49994.59;5071100;28;20500;-76